Time;durP1;ratioP1;P1;durP2;ratioP2;P2;SDS_P1;SDS_P2;PMS_P1;PMS_P2;Temp;Humidity;BMP_temperature;BMP_pressure;BME280_temperature;BME280_humidity;BME280_pressure;Samples;Min_cycle;Max_cycle;Signal;HPM_P1;HPM_P2
2023/07/09 00:00:41;;;;;;;4.90;3.85;;;;;;;;;;5055155;28;20231;-62
2023/07/09 00:03:10;;;;;;;8.15;4.65;;;;;;;;;;5047205;28;20222;-62
2023/07/09 00:05:38;;;;;;;6.53;3.85;;;;;;;;;;5039912;28;20242;-62
2023/07/09 00:08:05;;;;;;;7.78;4.60;;;;;;;;;;5038394;28;20211;-62
2023/07/09 00:10:35;;;;;;;6.00;4.13;;;;;;;;;;5038039;28;20227;-62
2023/07/09 00:13:03;;;;;;;7.85;4.00;;;;;;;;;;5038257;28;20241;-62
2023/07/09 00:15:31;;;;;;;7.57;4.15;;;;;;;;;;5037941;28;20297;-62
2023/07/09 00:18:00;;;;;;;5.72;4.00;;;;;;;;;;5038196;28;20262;-62
2023/07/09 00:20:28;;;;;;;9.85;4.57;;;;;;;;;;5044775;28;20229;-64
2023/07/09 00:22:57;;;;;;;9.18;4.93;;;;;;;;;;5057821;28;20296;-64
2023/07/09 00:25:25;;;;;;;10.02;4.90;;;;;;;;;;5058107;28;20214;-62
2023/07/09 00:27:54;;;;;;;7.00;4.15;;;;;;;;;;5057899;28;20202;-62
2023/07/09 00:30:22;;;;;;;6.43;4.70;;;;;;;;;;5057576;28;20235;-62
2023/07/09 00:32:51;;;;;;;10.02;4.50;;;;;;;;;;5057508;28;20637;-62
2023/07/09 00:35:20;;;;;;;6.07;4.30;;;;;;;;;;5057441;28;20203;-62
2023/07/09 00:37:48;;;;;;;11.77;4.75;;;;;;;;;;5057399;28;20250;-64
2023/07/09 00:40:18;;;;;;;5.93;4.35;;;;;;;;;;5057481;28;20256;-63
2023/07/09 00:42:47;;;;;;;10.52;4.43;;;;;;;;;;5040673;28;20212;-62
2023/07/09 00:45:21;;;;;;;9.52;4.20;;;;;;;;;;5037670;28;20293;-62
2023/07/09 00:47:51;;;;;;;6.60;4.30;;;;;;;;;;5037762;28;20214;-64
2023/07/09 00:50:27;;;;;;;7.55;4.30;;;;;;;;;;5037235;28;20297;-63
2023/07/09 00:52:57;;;;;;;9.13;4.03;;;;;;;;;;5037433;28;20215;-63
2023/07/09 00:55:26;;;;;;;9.52;4.25;;;;;;;;;;5037720;28;20215;-63
2023/07/09 00:57:57;;;;;;;6.13;4.40;;;;;;;;;;5037842;28;20211;-63
2023/07/09 01:00:45;;;;;;;8.48;4.10;;;;;;;;;;5052006;28;20233;-63
2023/07/09 01:03:16;;;;;;;8.27;4.72;;;;;;;;;;5049816;28;20647;-63
2023/07/09 01:05:44;;;;;;;6.18;3.88;;;;;;;;;;5043060;28;20207;-63
2023/07/09 01:08:12;;;;;;;5.53;4.18;;;;;;;;;;5041674;28;20294;-63
2023/07/09 01:10:40;;;;;;;7.47;4.32;;;;;;;;;;5041210;28;20603;-63
2023/07/09 01:13:09;;;;;;;5.72;4.38;;;;;;;;;;5041667;28;20211;-63
2023/07/09 01:15:38;;;;;;;8.35;4.30;;;;;;;;;;5048219;28;20289;-63
2023/07/09 01:18:06;;;;;;;8.80;4.45;;;;;;;;;;5061376;28;20206;-63
2023/07/09 01:20:34;;;;;;;6.43;4.40;;;;;;;;;;5061175;28;20223;-64
2023/07/09 01:23:05;;;;;;;7.07;4.47;;;;;;;;;;5061238;28;20256;-63
2023/07/09 01:25:33;;;;;;;6.85;4.47;;;;;;;;;;5061552;28;20596;-63
2023/07/09 01:28:01;;;;;;;6.78;4.43;;;;;;;;;;5060896;28;20217;-61
2023/07/09 01:30:31;;;;;;;6.72;4.32;;;;;;;;;;5061112;28;20316;-61
2023/07/09 01:33:00;;;;;;;6.22;4.30;;;;;;;;;;5060278;28;20253;-61
2023/07/09 01:35:29;;;;;;;6.93;4.53;;;;;;;;;;5059632;28;20234;-62
2023/07/09 01:37:58;;;;;;;7.10;4.20;;;;;;;;;;5059442;28;20207;-62
2023/07/09 01:40:28;;;;;;;4.57;4.07;;;;;;;;;;5059739;28;20222;-62
2023/07/09 01:43:00;;;;;;;7.57;4.30;;;;;;;;;;5040969;28;20235;-62
2023/07/09 01:45:29;;;;;;;9.43;4.72;;;;;;;;;;5039656;28;20556;-62
2023/07/09 01:47:57;;;;;;;7.60;4.50;;;;;;;;;;5039753;28;20211;-62
2023/07/09 01:50:26;;;;;;;10.10;4.15;;;;;;;;;;5039082;28;20263;-63
2023/07/09 01:52:54;;;;;;;9.32;4.78;;;;;;;;;;5039345;28;20207;-63
2023/07/09 01:55:22;;;;;;;9.60;4.93;;;;;;;;;;5039587;28;20678;-62
2023/07/09 01:57:52;;;;;;;6.28;4.70;;;;;;;;;;5039959;28;20212;-62
2023/07/09 02:00:20;;;;;;;6.85;4.30;;;;;;;;;;5052726;28;20218;-62
2023/07/09 02:02:48;;;;;;;7.88;4.35;;;;;;;;;;5051164;28;20685;-62
2023/07/09 02:05:19;;;;;;;5.70;4.22;;;;;;;;;;5041344;28;20568;-62
2023/07/09 02:07:48;;;;;;;9.98;4.30;;;;;;;;;;5039406;28;20203;-62
2023/07/09 02:10:18;;;;;;;7.13;4.43;;;;;;;;;;5039045;28;20227;-62
2023/07/09 02:12:47;;;;;;;5.38;4.63;;;;;;;;;;5038790;28;20619;-62
2023/07/09 02:15:16;;;;;;;6.47;3.97;;;;;;;;;;5039177;28;20306;-62
2023/07/09 02:17:44;;;;;;;5.60;4.05;;;;;;;;;;5039315;28;20207;-62
2023/07/09 02:20:13;;;;;;;4.38;3.88;;;;;;;;;;5038883;28;20288;-62
2023/07/09 02:22:41;;;;;;;5.20;4.03;;;;;;;;;;5038868;28;20234;-62
2023/07/09 02:25:09;;;;;;;5.97;3.85;;;;;;;;;;5039107;28;20289;-62
2023/07/09 02:27:37;;;;;;;8.15;4.32;;;;;;;;;;5038864;28;20210;-62
2023/07/09 02:30:06;;;;;;;6.07;3.88;;;;;;;;;;5045720;28;20230;-62
2023/07/09 02:32:35;;;;;;;7.45;5.28;;;;;;;;;;5017994;28;1173578;-61
2023/07/09 02:35:04;;;;;;;8.15;4.60;;;;;;;;;;5059894;28;20245;-63
2023/07/09 02:37:32;;;;;;;6.03;3.60;;;;;;;;;;5059600;28;20405;-63
2023/07/09 02:40:00;;;;;;;4.88;4.20;;;;;;;;;;5059843;28;20309;-61
2023/07/09 02:42:28;;;;;;;5.15;4.03;;;;;;;;;;5045016;28;20211;-62
2023/07/09 02:44:56;;;;;;;7.43;4.18;;;;;;;;;;5039682;28;20221;-62
2023/07/09 02:47:23;;;;;;;6.15;4.18;;;;;;;;;;5039864;28;20207;-62
2023/07/09 02:49:53;;;;;;;5.70;3.75;;;;;;;;;;5039521;28;20230;-61
2023/07/09 02:52:20;;;;;;;10.40;3.92;;;;;;;;;;5039512;28;20233;-61
2023/07/09 02:54:48;;;;;;;5.35;3.90;;;;;;;;;;5039741;28;20212;-63
2023/07/09 02:57:16;;;;;;;7.13;4.28;;;;;;;;;;5039462;28;20234;-62
2023/07/09 02:59:44;;;;;;;5.10;3.95;;;;;;;;;;5048399;28;20291;-63
2023/07/09 03:02:12;;;;;;;6.22;4.10;;;;;;;;;;5055897;28;20617;-61
2023/07/09 03:04:40;;;;;;;5.07;3.72;;;;;;;;;;5039409;28;20667;-63
2023/07/09 03:07:09;;;;;;;5.47;3.95;;;;;;;;;;5041239;28;20216;-63
2023/07/09 03:09:36;;;;;;;5.03;3.85;;;;;;;;;;5039128;28;20211;-63
2023/07/09 03:12:05;;;;;;;4.85;3.90;;;;;;;;;;5039405;28;20235;-63
2023/07/09 03:14:33;;;;;;;6.63;4.07;;;;;;;;;;5039396;28;20213;-63
2023/07/09 03:17:01;;;;;;;4.75;3.38;;;;;;;;;;5039081;28;20228;-63
2023/07/09 03:19:29;;;;;;;7.40;3.60;;;;;;;;;;5038965;28;20234;-63
2023/07/09 03:21:57;;;;;;;4.72;3.72;;;;;;;;;;5039045;28;20199;-63
2023/07/09 03:24:26;;;;;;;5.47;4.60;;;;;;;;;;5038322;28;20211;-63
2023/07/09 03:26:53;;;;;;;6.85;4.32;;;;;;;;;;5039694;28;20673;-63
2023/07/09 03:29:21;;;;;;;5.03;3.80;;;;;;;;;;5038863;28;20574;-63
2023/07/09 03:31:52;;;;;;;7.07;3.92;;;;;;;;;;5045546;28;20237;-63
2023/07/09 03:34:20;;;;;;;8.85;4.28;;;;;;;;;;5058403;28;20219;-63
2023/07/09 03:36:47;;;;;;;5.22;4.22;;;;;;;;;;5058818;28;20211;-63
2023/07/09 03:39:15;;;;;;;6.30;3.88;;;;;;;;;;5058734;28;20242;-63
2023/07/09 03:41:44;;;;;;;5.50;4.40;;;;;;;;;;5050613;28;20226;-63
2023/07/09 03:44:12;;;;;;;6.03;3.92;;;;;;;;;;5038470;28;20643;-63
2023/07/09 03:46:40;;;;;;;8.88;4.38;;;;;;;;;;5038946;28;20619;-63
2023/07/09 03:49:08;;;;;;;7.05;3.83;;;;;;;;;;5038173;28;20250;-63
2023/07/09 03:51:36;;;;;;;6.15;4.10;;;;;;;;;;5038454;28;20233;-63
2023/07/09 03:54:03;;;;;;;6.05;4.80;;;;;;;;;;5038493;28;20213;-63
2023/07/09 03:56:31;;;;;;;5.50;3.88;;;;;;;;;;5038548;28;20218;-63
2023/07/09 03:59:00;;;;;;;5.75;3.90;;;;;;;;;;5041135;28;20207;-63
2023/07/09 04:01:28;;;;;;;5.67;4.20;;;;;;;;;;5058044;28;20586;-63
2023/07/09 04:03:56;;;;;;;5.10;3.53;;;;;;;;;;5040277;28;20214;-63
2023/07/09 04:06:24;;;;;;;11.00;3.87;;;;;;;;;;5039668;28;20212;-63
2023/07/09 04:08:51;;;;;;;5.80;4.23;;;;;;;;;;5038375;28;20217;-62
2023/07/09 04:11:20;;;;;;;12.07;6.73;;;;;;;;;;5037896;28;20238;-62
2023/07/09 04:13:48;;;;;;;8.00;4.23;;;;;;;;;;5038272;28;20218;-63
2023/07/09 04:16:17;;;;;;;4.93;3.47;;;;;;;;;;5038309;28;20210;-63
2023/07/09 04:18:45;;;;;;;6.83;3.87;;;;;;;;;;5038127;28;20214;-63
2023/07/09 04:21:13;;;;;;;3.80;3.30;;;;;;;;;;5038087;28;20230;-63
2023/07/09 04:23:40;;;;;;;8.03;4.20;;;;;;;;;;5038637;28;20214;-63
2023/07/09 04:26:10;;;;;;;8.03;3.63;;;;;;;;;;5038125;28;20212;-63
2023/07/09 04:28:37;;;;;;;4.83;3.63;;;;;;;;;;5038127;28;20218;-63
2023/07/09 04:31:05;;;;;;;5.63;3.33;;;;;;;;;;5037881;28;20235;-63
2023/07/09 04:33:35;;;;;;;5.80;3.57;;;;;;;;;;5037781;28;20243;-63
2023/07/09 04:36:06;;;;;;;6.10;3.97;;;;;;;;;;5037251;28;20298;-62
2023/07/09 04:38:34;;;;;;;7.63;3.97;;;;;;;;;;5037787;28;20214;-63
2023/07/09 04:41:02;;;;;;;7.03;4.07;;;;;;;;;;5047389;28;20231;-63
2023/07/09 04:43:29;;;;;;;5.30;3.87;;;;;;;;;;5037960;28;20201;-63
2023/07/09 04:45:57;;;;;;;7.70;3.83;;;;;;;;;;5037583;28;20221;-63
2023/07/09 04:48:25;;;;;;;5.10;3.70;;;;;;;;;;5037679;28;20583;-63
2023/07/09 04:50:54;;;;;;;6.47;3.63;;;;;;;;;;5037474;28;20237;-63
2023/07/09 04:53:24;;;;;;;7.53;3.30;;;;;;;;;;5037794;28;20229;-63
2023/07/09 04:55:51;;;;;;;7.50;3.97;;;;;;;;;;5037488;28;20214;-63
2023/07/09 04:58:19;;;;;;;6.13;3.92;;;;;;;;;;5037736;28;20275;-63
2023/07/09 05:00:47;;;;;;;6.53;3.83;;;;;;;;;;5054841;28;20221;-63
2023/07/09 05:03:16;;;;;;;4.15;3.20;;;;;;;;;;5045254;28;20214;-62
2023/07/09 05:05:44;;;;;;;5.97;3.90;;;;;;;;;;5038912;28;20271;-63
2023/07/09 05:08:13;;;;;;;6.25;3.78;;;;;;;;;;5037336;28;20245;-62
2023/07/09 05:10:42;;;;;;;5.38;3.22;;;;;;;;;;5044159;28;20230;-63
2023/07/09 05:13:10;;;;;;;6.43;3.45;;;;;;;;;;5057266;28;20229;-62
2023/07/09 05:15:40;;;;;;;4.85;3.30;;;;;;;;;;5057320;28;20217;-63
2023/07/09 05:18:08;;;;;;;4.20;3.42;;;;;;;;;;5057494;28;20265;-63
2023/07/09 05:20:36;;;;;;;6.70;3.78;;;;;;;;;;5057198;28;20228;-63
2023/07/09 05:23:04;;;;;;;7.10;4.00;;;;;;;;;;5057288;28;20199;-63
2023/07/09 05:25:33;;;;;;;4.63;3.07;;;;;;;;;;5057523;28;20212;-63
2023/07/09 05:28:01;;;;;;;4.43;3.10;;;;;;;;;;5057415;28;20661;-63
2023/07/09 05:30:29;;;;;;;5.73;3.50;;;;;;;;;;5057395;28;20317;-62
2023/07/09 05:32:57;;;;;;;6.13;3.80;;;;;;;;;;5056988;28;20240;-63
2023/07/09 05:35:25;;;;;;;6.87;3.63;;;;;;;;;;5057148;28;20202;-63
2023/07/09 05:37:54;;;;;;;8.13;3.67;;;;;;;;;;5057222;28;20221;-63
2023/07/09 05:40:22;;;;;;;8.10;4.10;;;;;;;;;;5057212;28;20232;-63
2023/07/09 05:42:51;;;;;;;8.73;3.63;;;;;;;;;;5039098;28;20210;-63
2023/07/09 05:45:19;;;;;;;5.18;3.63;;;;;;;;;;5037511;28;20203;-63
2023/07/09 05:47:46;;;;;;;5.38;3.35;;;;;;;;;;5038473;28;20729;-63
2023/07/09 05:50:14;;;;;;;3.67;3.33;;;;;;;;;;5040707;28;20232;-63
2023/07/09 05:52:42;;;;;;;5.15;3.67;;;;;;;;;;5040692;28;20229;-63
2023/07/09 05:55:10;;;;;;;4.68;3.22;;;;;;;;;;5040672;28;20296;-63
2023/07/09 05:57:38;;;;;;;6.75;3.28;;;;;;;;;;5040883;28;20220;-63
2023/07/09 06:00:09;;;;;;;8.07;3.63;;;;;;;;;;5052644;28;20317;-63
2023/07/09 06:02:40;;;;;;;6.23;3.47;;;;;;;;;;5040865;28;20214;-63
2023/07/09 06:05:09;;;;;;;5.40;3.88;;;;;;;;;;5042437;28;20767;-63
2023/07/09 06:07:37;;;;;;;5.45;3.60;;;;;;;;;;5040421;28;20293;-63
2023/07/09 06:10:05;;;;;;;7.60;4.77;;;;;;;;;;5040486;28;20232;-63
2023/07/09 06:12:33;;;;;;;6.93;3.33;;;;;;;;;;5040555;28;20227;-63
2023/07/09 06:15:01;;;;;;;5.60;3.43;;;;;;;;;;5040188;28;20288;-63
2023/07/09 06:17:30;;;;;;;6.77;3.33;;;;;;;;;;5040482;28;20216;-62
2023/07/09 06:19:57;;;;;;;4.43;3.50;;;;;;;;;;5040106;28;20334;-63
2023/07/09 06:22:26;;;;;;;5.33;3.47;;;;;;;;;;5040279;28;20734;-63
2023/07/09 06:24:55;;;;;;;6.27;3.50;;;;;;;;;;5040288;28;20232;-63
2023/07/09 06:27:23;;;;;;;6.37;3.93;;;;;;;;;;5040336;28;20207;-63
2023/07/09 06:29:50;;;;;;;4.03;3.30;;;;;;;;;;5040068;28;20231;-63
2023/07/09 06:32:18;;;;;;;5.43;3.30;;;;;;;;;;5040102;28;20241;-63
2023/07/09 06:34:47;;;;;;;5.33;3.37;;;;;;;;;;5039599;28;20563;-63
2023/07/09 06:37:15;;;;;;;6.17;3.90;;;;;;;;;;5039993;28;20209;-62
2023/07/09 06:39:43;;;;;;;4.10;3.20;;;;;;;;;;5041494;28;20662;-62
2023/07/09 06:42:10;;;;;;;5.43;3.70;;;;;;;;;;5048036;28;20598;-62
2023/07/09 06:44:38;;;;;;;4.60;3.22;;;;;;;;;;5039636;28;20207;-63
2023/07/09 06:47:06;;;;;;;5.13;3.03;;;;;;;;;;5039981;28;20203;-62
2023/07/09 06:49:34;;;;;;;5.30;3.35;;;;;;;;;;5039378;28;20211;-62
2023/07/09 06:52:04;;;;;;;6.22;3.20;;;;;;;;;;5039766;28;20716;-63
2023/07/09 06:54:31;;;;;;;7.18;3.17;;;;;;;;;;5046593;28;20231;-63
2023/07/09 06:56:59;;;;;;;4.53;3.00;;;;;;;;;;5059610;28;20296;-63
2023/07/09 06:59:27;;;;;;;8.27;3.28;;;;;;;;;;5058309;28;20206;-63
2023/07/09 07:01:55;;;;;;;4.57;3.20;;;;;;;;;;5058604;28;20206;-62
2023/07/09 07:04:22;;;;;;;4.55;2.97;;;;;;;;;;5039127;28;20603;-63
2023/07/09 07:06:50;;;;;;;6.82;3.40;;;;;;;;;;5041139;28;20206;-62
2023/07/09 07:09:19;;;;;;;5.72;3.47;;;;;;;;;;5039275;28;20209;-62
2023/07/09 07:11:47;;;;;;;3.70;3.40;;;;;;;;;;5039363;28;20246;-63
2023/07/09 07:14:15;;;;;;;6.00;3.58;;;;;;;;;;5039302;28;20321;-63
2023/07/09 07:16:43;;;;;;;4.03;3.60;;;;;;;;;;5038957;28;20230;-62
2023/07/09 07:19:10;;;;;;;5.07;3.28;;;;;;;;;;5038946;28;20211;-63
2023/07/09 07:21:38;;;;;;;6.65;3.25;;;;;;;;;;5039188;28;20277;-63
2023/07/09 07:24:06;;;;;;;4.13;3.20;;;;;;;;;;5039120;28;20295;-63
2023/07/09 07:26:35;;;;;;;4.47;3.67;;;;;;;;;;5039053;28;20658;-63
2023/07/09 07:29:03;;;;;;;4.38;3.20;;;;;;;;;;5039139;28;20245;-63
2023/07/09 07:31:31;;;;;;;4.18;3.53;;;;;;;;;;5038874;28;20235;-62
2023/07/09 07:33:59;;;;;;;4.00;3.38;;;;;;;;;;5038388;28;20239;-62
2023/07/09 07:36:27;;;;;;;7.60;3.47;;;;;;;;;;5038580;28;20580;-62
2023/07/09 07:38:58;;;;;;;6.25;3.45;;;;;;;;;;5038675;28;20682;-63
2023/07/09 07:41:26;;;;;;;4.78;3.38;;;;;;;;;;5048059;28;20710;-63
2023/07/09 07:43:55;;;;;;;4.50;3.50;;;;;;;;;;5038520;28;20235;-63
2023/07/09 07:46:23;;;;;;;5.10;3.83;;;;;;;;;;5038543;28;20639;-62
2023/07/09 07:48:51;;;;;;;6.07;4.07;;;;;;;;;;5038403;28;20265;-62
2023/07/09 07:51:20;;;;;;;4.40;3.45;;;;;;;;;;5038523;28;20231;-63
2023/07/09 07:53:48;;;;;;;7.18;3.50;;;;;;;;;;5038555;28;20255;-62
2023/07/09 07:56:16;;;;;;;6.05;3.58;;;;;;;;;;5038380;28;20290;-63
2023/07/09 07:58:44;;;;;;;6.57;3.40;;;;;;;;;;5039135;28;20206;-62
2023/07/09 08:01:13;;;;;;;9.05;3.60;;;;;;;;;;5058309;28;20226;-63
2023/07/09 08:03:41;;;;;;;6.95;3.67;;;;;;;;;;5042608;28;20237;-62
2023/07/09 08:06:08;;;;;;;3.72;3.10;;;;;;;;;;5040285;28;20271;-63
2023/07/09 08:08:39;;;;;;;5.13;3.42;;;;;;;;;;5038337;28;20583;-61
2023/07/09 08:11:07;;;;;;;5.28;3.38;;;;;;;;;;5037984;28;20223;-62
2023/07/09 08:13:36;;;;;;;5.40;3.95;;;;;;;;;;5038170;28;20227;-63
2023/07/09 08:16:04;;;;;;;4.30;3.42;;;;;;;;;;5038298;28;20211;-61
2023/07/09 08:18:34;;;;;;;6.63;3.40;;;;;;;;;;5038152;28;20270;-62
2023/07/09 08:21:03;;;;;;;5.95;3.53;;;;;;;;;;5038180;28;20231;-62
2023/07/09 08:23:30;;;;;;;4.88;3.22;;;;;;;;;;5038076;28;20273;-63
2023/07/09 08:26:00;;;;;;;5.45;3.58;;;;;;;;;;5038188;28;20211;-63
2023/07/09 08:28:28;;;;;;;5.22;3.70;;;;;;;;;;5038106;28;20203;-62
2023/07/09 08:30:57;;;;;;;6.88;3.20;;;;;;;;;;5037768;28;20223;-63
2023/07/09 08:33:25;;;;;;;4.43;3.50;;;;;;;;;;5044348;28;20250;-63
2023/07/09 08:35:54;;;;;;;5.10;3.28;;;;;;;;;;5057507;28;20210;-61
2023/07/09 08:38:22;;;;;;;7.10;3.65;;;;;;;;;;5057836;28;20293;-63
2023/07/09 08:40:53;;;;;;;7.28;3.63;;;;;;;;;;5056292;28;20257;-63
2023/07/09 08:43:24;;;;;;;8.52;3.60;;;;;;;;;;5037913;28;20217;-62
2023/07/09 08:45:58;;;;;;;4.03;3.35;;;;;;;;;;5037507;28;20274;-62
2023/07/09 08:48:28;;;;;;;5.88;3.53;;;;;;;;;;5037862;28;20207;-62
2023/07/09 08:50:59;;;;;;;4.07;3.13;;;;;;;;;;5037407;28;20266;-61
2023/07/09 08:53:32;;;;;;;4.28;3.70;;;;;;;;;;5037695;28;20570;-63
2023/07/09 08:56:00;;;;;;;3.50;3.13;;;;;;;;;;5037626;28;20227;-61
2023/07/09 08:58:29;;;;;;;6.22;3.55;;;;;;;;;;5037412;28;20211;-61
2023/07/09 09:00:58;;;;;;;3.50;3.10;;;;;;;;;;5055633;28;20309;-61
2023/07/09 09:03:31;;;;;;;7.00;3.60;;;;;;;;;;5043639;28;20207;-61
2023/07/09 09:06:01;;;;;;;3.80;3.28;;;;;;;;;;5039316;28;20709;-62
2023/07/09 09:08:33;;;;;;;7.20;4.15;;;;;;;;;;5037537;28;20210;-61
2023/07/09 09:11:08;;;;;;;4.32;3.08;;;;;;;;;;5037616;28;20699;-62
2023/07/09 09:13:38;;;;;;;4.00;3.28;;;;;;;;;;5037599;28;20206;-62
2023/07/09 09:16:07;;;;;;;4.25;3.45;;;;;;;;;;5037532;28;20227;-62
2023/07/09 09:18:38;;;;;;;7.13;3.47;;;;;;;;;;5037024;28;20285;-60
2023/07/09 09:21:16;;;;;;;5.18;3.25;;;;;;;;;;5037816;28;20262;-61
2023/07/09 09:23:47;;;;;;;4.97;3.30;;;;;;;;;;5040257;28;20210;-62
2023/07/09 09:26:18;;;;;;;5.53;3.33;;;;;;;;;;5041315;28;20207;-61
2023/07/09 09:28:46;;;;;;;5.43;3.63;;;;;;;;;;5041366;28;20211;-61
2023/07/09 09:31:15;;;;;;;3.88;3.55;;;;;;;;;;5040851;28;20255;-62
2023/07/09 09:33:43;;;;;;;6.35;3.63;;;;;;;;;;5040722;28;20230;-62
2023/07/09 09:36:16;;;;;;;5.78;3.60;;;;;;;;;;5040703;28;20713;-61
2023/07/09 09:38:44;;;;;;;7.13;3.58;;;;;;;;;;5041113;28;20221;-61
2023/07/09 09:41:16;;;;;;;5.95;3.15;;;;;;;;;;5049713;28;20730;-61
2023/07/09 09:43:45;;;;;;;11.43;3.97;;;;;;;;;;5040786;28;20277;-61
2023/07/09 09:46:17;;;;;;;6.25;3.50;;;;;;;;;;5040678;28;20207;-61
2023/07/09 09:48:46;;;;;;;4.35;3.60;;;;;;;;;;5040615;28;20207;-62
2023/07/09 09:51:15;;;;;;;6.72;3.80;;;;;;;;;;5040458;28;20227;-61
2023/07/09 09:53:47;;;;;;;8.73;3.88;;;;;;;;;;5040758;28;20211;-62
2023/07/09 09:56:18;;;;;;;5.10;3.83;;;;;;;;;;5040831;28;20318;-62
2023/07/09 09:58:45;;;;;;;5.05;3.50;;;;;;;;;;5041511;28;20245;-62
2023/07/09 10:01:15;;;;;;;4.85;3.42;;;;;;;;;;5060078;28;20219;-62
2023/07/09 10:03:44;;;;;;;9.35;3.72;;;;;;;;;;5044195;28;20203;-61
2023/07/09 10:06:16;;;;;;;4.68;3.92;;;;;;;;;;5042309;28;20261;-61
2023/07/09 10:08:51;;;;;;;6.85;3.78;;;;;;;;;;5040510;28;20211;-61
2023/07/09 10:11:29;;;;;;;5.03;3.55;;;;;;;;;;5040402;28;20702;-61
2023/07/09 10:14:00;;;;;;;4.70;3.65;;;;;;;;;;5046889;28;20608;-61
2023/07/09 10:16:35;;;;;;;4.82;4.20;;;;;;;;;;5060181;28;20322;-61
2023/07/09 10:19:09;;;;;;;3.58;3.22;;;;;;;;;;5060001;28;20213;-61
2023/07/09 10:21:43;;;;;;;5.00;3.60;;;;;;;;;;5059774;28;20317;-62
2023/07/09 10:24:20;;;;;;;6.35;4.18;;;;;;;;;;5060073;28;20218;-62
2023/07/09 10:26:52;;;;;;;5.15;3.58;;;;;;;;;;5059827;28;20289;-62
2023/07/09 10:29:31;;;;;;;5.47;3.65;;;;;;;;;;5060160;28;20207;-62
2023/07/09 10:32:02;;;;;;;5.10;3.80;;;;;;;;;;5059923;28;20206;-62
2023/07/09 10:34:33;;;;;;;5.90;4.03;;;;;;;;;;5059450;28;20578;-62
2023/07/09 10:37:15;;;;;;;6.05;3.53;;;;;;;;;;5059984;28;20217;-62
2023/07/09 10:39:48;;;;;;;5.05;4.20;;;;;;;;;;5059757;28;20381;-62
2023/07/09 10:42:19;;;;;;;5.38;3.92;;;;;;;;;;5047154;28;20271;-62
2023/07/09 10:44:49;;;;;;;6.95;4.00;;;;;;;;;;5046578;28;20638;-62
2023/07/09 10:47:24;;;;;;;5.10;4.10;;;;;;;;;;5059705;28;20237;-62
2023/07/09 10:49:52;;;;;;;5.43;4.07;;;;;;;;;;5059143;28;20304;-62
2023/07/09 10:52:24;;;;;;;6.65;3.72;;;;;;;;;;5059402;28;20218;-61
2023/07/09 10:54:58;;;;;;;4.82;4.18;;;;;;;;;;5059368;28;20237;-61
2023/07/09 10:57:29;;;;;;;5.78;3.75;;;;;;;;;;5059533;28;20209;-63
2023/07/09 10:59:57;;;;;;;9.32;3.35;;;;;;;;;;5059329;28;20227;-62
2023/07/09 11:02:26;;;;;;;7.35;3.88;;;;;;;;;;5053843;28;20207;-63
2023/07/09 11:04:55;;;;;;;5.80;4.00;;;;;;;;;;5040236;28;20207;-61
2023/07/09 11:07:28;;;;;;;8.30;3.47;;;;;;;;;;5039677;28;20218;-62
2023/07/09 11:09:56;;;;;;;6.95;4.10;;;;;;;;;;5039386;28;20291;-61
2023/07/09 11:12:37;;;;;;;5.05;3.92;;;;;;;;;;5039411;28;20207;-62
2023/07/09 11:15:08;;;;;;;5.47;4.13;;;;;;;;;;5039204;28;20207;-61
2023/07/09 11:17:38;;;;;;;5.35;3.80;;;;;;;;;;5039351;28;20642;-61
2023/07/09 11:20:09;;;;;;;3.72;3.42;;;;;;;;;;5038662;28;20258;-61
2023/07/09 11:22:39;;;;;;;5.20;3.80;;;;;;;;;;5038983;28;20222;-61
2023/07/09 11:25:08;;;;;;;7.53;4.43;;;;;;;;;;5039129;28;20207;-61
2023/07/09 11:27:46;;;;;;;5.72;4.25;;;;;;;;;;5038953;28;20233;-62
2023/07/09 11:30:22;;;;;;;9.18;4.32;;;;;;;;;;5039063;28;20270;-62
2023/07/09 11:32:53;;;;;;;10.07;4.20;;;;;;;;;;5038652;28;20321;-61
2023/07/09 11:35:22;;;;;;;5.20;4.07;;;;;;;;;;5038824;28;20238;-62
2023/07/09 11:37:52;;;;;;;6.40;4.03;;;;;;;;;;5038821;28;20227;-61
2023/07/09 11:40:21;;;;;;;5.32;4.15;;;;;;;;;;5045354;28;20258;-62
2023/07/09 11:42:51;;;;;;;4.88;3.75;;;;;;;;;;5041071;28;20207;-62
2023/07/09 11:45:21;;;;;;;8.70;4.95;;;;;;;;;;5038205;28;20349;-62
2023/07/09 11:47:53;;;;;;;7.43;3.60;;;;;;;;;;5038460;28;20211;-61
2023/07/09 11:50:25;;;;;;;5.85;3.88;;;;;;;;;;5038398;28;20259;-62
2023/07/09 11:52:56;;;;;;;9.05;4.13;;;;;;;;;;5045035;28;20285;-62
2023/07/09 11:55:28;;;;;;;6.78;3.75;;;;;;;;;;5058403;28;20230;-62
2023/07/09 11:57:56;;;;;;;10.00;4.22;;;;;;;;;;5058534;28;20210;-61
2023/07/09 12:00:28;;;;;;;7.57;4.00;;;;;;;;;;5058047;28;20300;-62
2023/07/09 12:02:56;;;;;;;6.25;3.88;;;;;;;;;;5048873;28;20294;-62
2023/07/09 12:05:27;;;;;;;5.88;3.90;;;;;;;;;;5039878;28;20213;-62
2023/07/09 12:07:57;;;;;;;4.57;3.60;;;;;;;;;;5038279;28;20241;-61
2023/07/09 12:10:27;;;;;;;8.43;4.25;;;;;;;;;;5038225;28;20318;-62
2023/07/09 12:12:55;;;;;;;5.80;4.18;;;;;;;;;;5038383;28;20663;-62
2023/07/09 12:15:24;;;;;;;6.10;3.70;;;;;;;;;;5038325;28;20274;-61
2023/07/09 12:17:56;;;;;;;8.07;4.30;;;;;;;;;;5038183;28;20203;-62
2023/07/09 12:20:24;;;;;;;7.63;4.18;;;;;;;;;;5037658;28;20255;-61
2023/07/09 12:22:51;;;;;;;5.57;3.63;;;;;;;;;;5037963;28;20238;-61
2023/07/09 12:25:22;;;;;;;5.63;4.55;;;;;;;;;;5037875;28;20207;-61
2023/07/09 12:27:50;;;;;;;7.55;3.90;;;;;;;;;;5038150;28;20213;-62
2023/07/09 12:30:18;;;;;;;6.07;4.35;;;;;;;;;;5038092;28;20235;-61
2023/07/09 12:32:46;;;;;;;4.65;3.60;;;;;;;;;;5037981;28;20239;-61
2023/07/09 12:35:15;;;;;;;9.10;3.83;;;;;;;;;;5037743;28;20207;-63
2023/07/09 12:37:44;;;;;;;7.07;4.55;;;;;;;;;;5037472;28;20630;-63
2023/07/09 12:40:14;;;;;;;5.90;4.10;;;;;;;;;;5043406;28;20222;-63
2023/07/09 12:42:44;;;;;;;6.72;4.25;;;;;;;;;;5040471;28;20218;-63
2023/07/09 12:45:16;;;;;;;5.05;4.07;;;;;;;;;;5038179;28;20211;-63
2023/07/09 12:47:44;;;;;;;4.07;3.67;;;;;;;;;;5037463;28;20584;-61
2023/07/09 12:50:19;;;;;;;4.72;3.45;;;;;;;;;;5037511;28;20234;-62
2023/07/09 12:52:47;;;;;;;8.02;3.90;;;;;;;;;;5044352;28;20241;-63
2023/07/09 12:55:22;;;;;;;5.78;3.45;;;;;;;;;;5057719;28;20202;-61
2023/07/09 12:57:51;;;;;;;8.02;4.05;;;;;;;;;;5060863;28;20218;-62
2023/07/09 13:00:19;;;;;;;8.18;4.53;;;;;;;;;;5060478;28;20694;-62
2023/07/09 13:02:52;;;;;;;5.13;3.38;;;;;;;;;;5053512;28;20293;-62
2023/07/09 13:05:21;;;;;;;7.72;4.20;;;;;;;;;;5043492;28;20207;-61
2023/07/09 13:07:51;;;;;;;4.60;3.83;;;;;;;;;;5041680;28;20291;-61
2023/07/09 13:10:20;;;;;;;4.85;3.42;;;;;;;;;;5041709;28;20230;-61
2023/07/09 13:12:48;;;;;;;8.88;3.70;;;;;;;;;;5041645;28;20673;-62
2023/07/09 13:15:27;;;;;;;6.18;3.55;;;;;;;;;;5041601;28;20223;-62
2023/07/09 13:17:58;;;;;;;9.02;3.72;;;;;;;;;;5041478;28;20223;-61
2023/07/09 13:20:26;;;;;;;5.07;3.50;;;;;;;;;;5040913;28;20289;-62
2023/07/09 13:22:54;;;;;;;6.05;3.72;;;;;;;;;;5041304;28;20221;-61
2023/07/09 13:25:22;;;;;;;4.65;3.53;;;;;;;;;;5048164;28;20210;-63
2023/07/09 13:28:12;;;;;;;6.35;3.38;;;;;;;;;;5061259;28;20205;-63
2023/07/09 13:30:41;;;;;;;4.70;4.15;;;;;;;;;;5061289;28;20585;-63
2023/07/09 13:33:09;;;;;;;3.60;3.13;;;;;;;;;;5061228;28;20792;-63
2023/07/09 13:35:38;;;;;;;6.13;3.95;;;;;;;;;;5060690;28;20613;-62
2023/07/09 13:38:12;;;;;;;4.50;3.47;;;;;;;;;;5061008;28;20226;-62
2023/07/09 13:40:40;;;;;;;4.55;3.75;;;;;;;;;;5060809;28;20229;-62
2023/07/09 13:43:10;;;;;;;6.80;3.30;;;;;;;;;;5042099;28;20218;-62
2023/07/09 13:45:37;;;;;;;4.53;3.75;;;;;;;;;;5041013;28;20218;-61
2023/07/09 13:48:12;;;;;;;5.03;3.67;;;;;;;;;;5047454;28;20230;-61
2023/07/09 13:50:40;;;;;;;3.88;3.25;;;;;;;;;;5060609;28;20227;-62
2023/07/09 13:53:12;;;;;;;6.95;3.50;;;;;;;;;;5060801;28;20207;-62
2023/07/09 13:55:40;;;;;;;5.25;3.17;;;;;;;;;;5060520;28;20214;-62
2023/07/09 13:58:09;;;;;;;6.68;3.63;;;;;;;;;;5060795;28;20230;-62
2023/07/09 14:00:36;;;;;;;8.82;3.70;;;;;;;;;;5048083;28;20636;-61
2023/07/09 14:03:04;;;;;;;5.80;3.50;;;;;;;;;;5050069;28;20207;-62
2023/07/09 14:05:33;;;;;;;6.40;3.97;;;;;;;;;;5042213;28;20663;-62
2023/07/09 14:08:01;;;;;;;4.72;2.90;;;;;;;;;;5040032;28;20209;-62
2023/07/09 14:10:29;;;;;;;3.65;3.20;;;;;;;;;;5040405;28;20231;-62
2023/07/09 14:12:57;;;;;;;4.50;3.60;;;;;;;;;;5040506;28;20294;-62
2023/07/09 14:15:25;;;;;;;5.03;3.15;;;;;;;;;;5040399;28;20218;-61
2023/07/09 14:17:52;;;;;;;5.68;3.40;;;;;;;;;;5040407;28;20231;-62
2023/07/09 14:20:21;;;;;;;5.38;3.58;;;;;;;;;;5039800;28;20231;-62
2023/07/09 14:22:50;;;;;;;5.53;3.20;;;;;;;;;;5039807;28;20230;-62
2023/07/09 14:25:19;;;;;;;7.32;3.63;;;;;;;;;;5040222;28;20213;-61
2023/07/09 14:27:47;;;;;;;5.43;3.65;;;;;;;;;;5039780;28;20235;-63
2023/07/09 14:30:16;;;;;;;4.88;3.30;;;;;;;;;;5040263;28;20227;-61
2023/07/09 14:32:45;;;;;;;7.15;3.20;;;;;;;;;;5039960;28;20246;-62
2023/07/09 14:35:14;;;;;;;6.50;3.42;;;;;;;;;;5040002;28;20215;-64
2023/07/09 14:37:43;;;;;;;6.60;3.28;;;;;;;;;;5039868;28;20227;-63
2023/07/09 14:40:12;;;;;;;5.63;3.28;;;;;;;;;;5045342;28;20219;-63
2023/07/09 14:42:40;;;;;;;4.40;3.22;;;;;;;;;;5042739;28;20235;-62
2023/07/09 14:45:17;;;;;;;6.43;3.13;;;;;;;;;;5039931;28;20211;-61
2023/07/09 14:47:45;;;;;;;5.88;3.40;;;;;;;;;;5039948;28;20301;-63
2023/07/09 14:50:13;;;;;;;4.25;3.60;;;;;;;;;;5039546;28;20227;-63
2023/07/09 14:52:41;;;;;;;4.25;3.08;;;;;;;;;;5039434;28;20235;-63
2023/07/09 14:55:14;;;;;;;5.13;3.17;;;;;;;;;;5039783;28;20212;-63